createdAt,value
2023-01-09T00:02:07.639Z,4.00
2023-01-09T00:04:48.510Z,3.80
2023-01-09T00:07:35.307Z,3.80
2023-01-09T00:10:17.288Z,3.70
2023-01-09T00:13:04.479Z,3.60
2023-01-09T00:15:46.362Z,3.60
2023-01-09T00:18:33.571Z,3.40
2023-01-09T00:21:16.256Z,3.40
2023-01-09T00:24:03.400Z,3.20
2023-01-09T00:26:44.400Z,3.20
2023-01-09T00:29:32.331Z,3.10
2023-01-09T00:32:17.377Z,3.20
2023-01-09T00:35:04.448Z,3.00
2023-01-09T00:37:45.290Z,3.00
2023-01-09T00:40:33.609Z,2.90
2023-01-09T00:43:14.274Z,2.80
2023-01-09T00:46:01.267Z,2.80
2023-01-09T00:48:45.371Z,2.80
2023-01-09T00:51:32.709Z,2.70
2023-01-09T00:54:13.435Z,2.80
2023-01-09T00:57:01.406Z,2.80
2023-01-09T00:59:42.644Z,2.80
2023-01-09T01:02:29.820Z,2.70
2023-01-09T01:05:42.228Z,2.80
2023-01-09T01:08:29.677Z,2.80
2023-01-09T01:11:17.164Z,2.70
2023-01-09T01:14:04.682Z,2.80
2023-01-09T01:16:45.359Z,2.80
2023-01-09T01:19:32.356Z,2.80
2023-01-09T01:22:13.259Z,2.80
2023-01-09T01:25:00.495Z,2.90
2023-01-09T01:27:41.291Z,3.10
2023-01-09T01:30:28.428Z,3.10
2023-01-09T01:33:09.663Z,3.20
2023-01-09T01:35:56.334Z,3.40
2023-01-09T01:38:37.332Z,3.40
2023-01-09T01:41:30.826Z,3.60
2023-01-09T01:44:13.316Z,3.60
2023-01-09T01:47:02.462Z,3.70
2023-01-09T01:49:43.581Z,3.80
2023-01-09T01:52:31.422Z,3.90
2023-01-09T01:55:15.322Z,3.90
2023-01-09T01:58:06.708Z,4.00
2023-01-09T02:03:30.091Z,4.00
2023-01-09T02:05:57.772Z,4.10
2023-01-09T02:08:25.867Z,4.10
2023-01-09T02:10:54.720Z,4.10
2023-01-09T02:13:22.840Z,4.00
2023-01-09T02:16:16.612Z,4.10
2023-01-09T02:18:59.551Z,4.20
2023-01-09T02:21:37.473Z,4.10
2023-01-09T02:24:22.296Z,4.10
2023-01-09T02:27:27.602Z,4.20
2023-01-09T02:30:04.139Z,4.20
2023-01-09T02:32:31.809Z,4.20
2023-01-09T02:35:30.139Z,4.20
2023-01-09T02:38:14.788Z,4.30
2023-01-09T02:41:19.443Z,4.40
2023-01-09T02:43:47.112Z,4.50
2023-01-09T02:46:21.848Z,4.50
2023-01-09T02:48:52.969Z,4.50
2023-01-09T02:51:24.686Z,4.50
2023-01-09T02:54:08.916Z,4.50
2023-01-09T02:57:17.972Z,4.50
2023-01-09T03:00:05.554Z,4.50
2023-01-09T03:02:57.879Z,4.60
2023-01-09T03:05:31.137Z,4.60
2023-01-09T03:08:04.973Z,4.70
2023-01-09T03:10:46.144Z,4.70
2023-01-09T03:13:18.621Z,4.70
2023-01-09T03:15:50.927Z,4.80
2023-01-09T03:18:23.069Z,5.00
2023-01-09T03:20:52.251Z,5.30
2023-01-09T03:23:19.755Z,5.20
2023-01-09T03:25:47.316Z,5.10
2023-01-09T03:28:45.009Z,5.10
2023-01-09T03:31:13.615Z,5.00
2023-01-09T03:33:41.614Z,5.20
2023-01-09T03:36:10.582Z,5.20
2023-01-09T03:38:38.734Z,5.30
2023-01-09T03:41:06.704Z,5.40
2023-01-09T03:43:34.413Z,5.50
2023-01-09T03:46:02.927Z,5.50
2023-01-09T03:48:30.687Z,5.40
2023-01-09T03:50:58.310Z,5.40
2023-01-09T03:53:28.089Z,5.50
2023-01-09T03:55:57.363Z,5.50
2023-01-09T03:58:26.524Z,5.70
2023-01-09T04:01:05.737Z,5.50
2023-01-09T04:03:33.551Z,5.60
2023-01-09T04:06:01.356Z,5.70
2023-01-09T04:08:28.930Z,5.80
2023-01-09T04:10:56.857Z,6.00
2023-01-09T04:13:24.601Z,6.00
2023-01-09T04:15:52.480Z,6.00
2023-01-09T04:18:20.292Z,6.00
2023-01-09T04:20:49.092Z,6.10
2023-01-09T04:23:16.942Z,6.10
2023-01-09T04:25:44.578Z,6.10
2023-01-09T04:28:12.208Z,6.00
2023-01-09T04:30:39.716Z,6.00
2023-01-09T04:33:07.318Z,6.10
2023-01-09T04:35:35.281Z,6.10
2023-01-09T04:38:02.863Z,6.10
2023-01-09T04:40:30.453Z,6.10
2023-01-09T04:42:58.163Z,6.00
2023-01-09T04:45:25.922Z,6.00
2023-01-09T04:47:53.895Z,6.20
2023-01-09T04:50:21.898Z,6.10
2023-01-09T04:52:49.919Z,6.10
2023-01-09T04:55:17.810Z,6.10
2023-01-09T04:57:45.533Z,6.10
2023-01-09T05:00:13.469Z,6.00
2023-01-09T05:02:41.276Z,5.70
2023-01-09T05:05:12.141Z,5.80
2023-01-09T05:07:40.862Z,5.90
2023-01-09T05:10:10.396Z,6.00
2023-01-09T05:12:40.313Z,6.00
2023-01-09T05:15:09.045Z,6.00
2023-01-09T05:17:36.622Z,6.00
2023-01-09T05:20:05.533Z,6.00
2023-01-09T05:22:33.552Z,5.90
2023-01-09T05:25:01.229Z,5.80
2023-01-09T05:27:30.685Z,5.90
2023-01-09T05:29:58.579Z,5.90
2023-01-09T05:32:26.208Z,5.80
2023-01-09T05:34:53.988Z,5.90
2023-01-09T05:37:22.131Z,5.90
2023-01-09T05:39:49.667Z,5.90
2023-01-09T05:42:17.356Z,5.90
2023-01-09T05:44:45.272Z,5.80
2023-01-09T05:47:12.922Z,5.70
2023-01-09T05:49:40.673Z,5.70
2023-01-09T05:52:08.952Z,5.60
2023-01-09T05:54:37.065Z,5.60
2023-01-09T05:57:05.239Z,5.70
2023-01-09T05:59:32.888Z,5.70
2023-01-09T06:02:00.694Z,5.80
2023-01-09T06:04:30.262Z,5.90
2023-01-09T06:06:58.210Z,5.80
2023-01-09T06:09:25.731Z,5.90
2023-01-09T06:11:54.962Z,5.70
2023-01-09T06:14:23.000Z,5.60
2023-01-09T06:16:50.730Z,5.60
2023-01-09T06:19:18.440Z,5.70
2023-01-09T06:21:45.983Z,5.70
2023-01-09T06:24:13.939Z,5.80
2023-01-09T06:26:41.392Z,5.80
2023-01-09T06:29:09.384Z,5.80
2023-01-09T06:31:37.185Z,5.80
2023-01-09T06:34:04.816Z,5.80
2023-01-09T06:36:32.553Z,5.70
2023-01-09T06:39:00.266Z,5.70
2023-01-09T06:41:28.250Z,5.70
2023-01-09T06:43:55.887Z,5.60
2023-01-09T06:46:23.739Z,5.60
2023-01-09T06:48:52.938Z,5.70
2023-01-09T06:51:20.610Z,5.60
2023-01-09T06:53:48.298Z,5.60
2023-01-09T06:56:15.965Z,5.60
2023-01-09T06:58:43.579Z,5.70
2023-01-09T07:01:11.269Z,5.80
2023-01-09T07:03:39.172Z,5.90
2023-01-09T07:06:07.269Z,5.90
2023-01-09T07:08:35.057Z,6.00
2023-01-09T07:11:03.079Z,5.90
2023-01-09T07:13:30.955Z,6.00
2023-01-09T07:15:58.657Z,5.90
2023-01-09T07:18:26.521Z,5.90
2023-01-09T07:20:54.600Z,6.00
2023-01-09T07:23:22.539Z,6.00
2023-01-09T07:25:52.824Z,6.00
2023-01-09T07:28:20.678Z,6.10
2023-01-09T07:30:48.318Z,6.10
2023-01-09T07:33:16.036Z,6.10
2023-01-09T07:35:43.744Z,6.10
2023-01-09T07:38:11.567Z,6.10
2023-01-09T07:40:39.558Z,5.90
2023-01-09T07:43:07.297Z,6.00
2023-01-09T07:45:34.940Z,6.10
2023-01-09T07:48:02.732Z,6.10
2023-01-09T07:50:30.628Z,5.90
2023-01-09T07:52:58.476Z,5.90
2023-01-09T07:55:26.579Z,6.00
2023-01-09T07:57:54.452Z,6.10
2023-01-09T08:00:22.307Z,6.10
2023-01-09T08:02:54.196Z,6.10
2023-01-09T08:05:22.582Z,6.10
2023-01-09T08:07:51.732Z,6.20
2023-01-09T08:10:20.026Z,6.10
2023-01-09T08:12:49.372Z,6.30
2023-01-09T08:15:18.211Z,6.30
2023-01-09T08:17:46.665Z,6.40
2023-01-09T08:20:17.427Z,6.50
2023-01-09T08:22:50.767Z,6.50
2023-01-09T08:25:18.514Z,6.50
2023-01-09T08:27:46.561Z,6.70
2023-01-09T08:30:15.035Z,6.70
2023-01-09T08:32:42.658Z,6.70
2023-01-09T08:35:10.945Z,6.70
2023-01-09T08:37:38.938Z,6.80
2023-01-09T08:40:07.113Z,6.80
2023-01-09T08:42:53.199Z,6.90
2023-01-09T08:45:39.722Z,6.90
2023-01-09T08:48:07.503Z,6.90
2023-01-09T08:50:35.584Z,7.00
2023-01-09T08:53:03.398Z,7.20
2023-01-09T08:55:31.342Z,7.20
2023-01-09T08:57:59.094Z,7.20
2023-01-09T09:00:27.104Z,7.30
2023-01-09T09:02:59.562Z,7.30
2023-01-09T09:05:29.874Z,7.30
2023-01-09T09:07:58.741Z,7.40
2023-01-09T09:10:29.100Z,7.40
2023-01-09T09:12:58.748Z,7.30
2023-01-09T09:15:28.028Z,7.30
2023-01-09T09:17:58.304Z,7.20
2023-01-09T09:20:30.193Z,7.30
2023-01-09T09:22:58.048Z,7.30
2023-01-09T09:25:26.427Z,7.10
2023-01-09T09:27:56.343Z,7.10
2023-01-09T09:30:24.872Z,7.20
2023-01-09T09:32:52.558Z,7.10
2023-01-09T09:35:21.591Z,7.10
2023-01-09T09:38:00.124Z,7.20
2023-01-09T09:40:51.571Z,7.30
2023-01-09T09:43:46.983Z,7.30
2023-01-09T09:46:29.972Z,7.30
2023-01-09T09:49:11.237Z,7.40
2023-01-09T09:52:06.271Z,7.40
2023-01-09T09:54:40.831Z,7.60
2023-01-09T09:57:16.879Z,7.60
2023-01-09T09:59:48.688Z,7.80
2023-01-09T10:02:33.242Z,8.00
2023-01-09T10:05:07.786Z,8.40
2023-01-09T10:07:42.432Z,8.60
2023-01-09T10:10:25.176Z,8.70
2023-01-09T10:12:58.758Z,8.80
2023-01-09T10:15:46.731Z,8.80
2023-01-09T10:18:43.920Z,8.80
2023-01-09T10:22:01.080Z,8.70
2023-01-09T10:24:53.055Z,8.50
2023-01-09T10:27:27.786Z,8.30
2023-01-09T10:30:26.647Z,8.20
2023-01-09T10:33:03.316Z,8.50
2023-01-09T10:35:57.447Z,8.40
2023-01-09T10:38:33.026Z,8.70
2023-01-09T10:41:25.670Z,8.80
2023-01-09T10:44:04.798Z,8.80
2023-01-09T10:46:45.990Z,8.80
2023-01-09T10:49:17.734Z,8.90
2023-01-09T10:52:15.571Z,8.80
2023-01-09T10:54:52.756Z,8.50
2023-01-09T10:57:42.419Z,8.60
2023-01-09T11:00:23.673Z,8.80
2023-01-09T11:02:55.235Z,8.70
2023-01-09T11:05:26.389Z,8.50
2023-01-09T11:08:40.346Z,8.40
2023-01-09T11:11:09.247Z,8.40
2023-01-09T11:13:38.703Z,8.10
2023-01-09T11:16:15.473Z,7.80
2023-01-09T11:18:53.670Z,7.60
2023-01-09T11:21:42.194Z,7.70
2023-01-09T11:24:19.010Z,7.60
2023-01-09T11:26:48.729Z,7.50
2023-01-09T11:29:19.486Z,7.60
2023-01-09T11:32:02.432Z,7.50
2023-01-09T11:34:33.249Z,7.60
2023-01-09T11:37:10.249Z,7.60
2023-01-09T11:39:41.951Z,7.60
2023-01-09T11:42:49.031Z,7.50
2023-01-09T11:45:32.449Z,7.40
2023-01-09T11:48:00.854Z,7.40
2023-01-09T11:50:31.433Z,7.30
2023-01-09T11:53:18.960Z,7.30
2023-01-09T11:55:57.028Z,7.30
2023-01-09T11:58:25.114Z,7.40
2023-01-09T12:01:25.113Z,7.30
2023-01-09T12:04:28.849Z,7.40
2023-01-09T12:07:33.847Z,7.50
2023-01-09T12:10:07.724Z,7.60
2023-01-09T12:13:03.832Z,7.50
2023-01-09T12:15:54.202Z,7.30
2023-01-09T12:18:43.646Z,7.20
2023-01-09T12:21:23.352Z,7.40
2023-01-09T12:24:27.972Z,7.50
2023-01-09T12:27:09.709Z,7.20
2023-01-09T12:29:51.351Z,7.20
2023-01-09T12:32:30.499Z,7.20
2023-01-09T12:35:20.331Z,7.20
2023-01-09T12:38:26.522Z,7.30
2023-01-09T12:41:12.496Z,7.40
2023-01-09T12:44:06.426Z,7.50
2023-01-09T12:47:22.922Z,7.30
2023-01-09T12:50:14.519Z,6.80
2023-01-09T12:52:49.355Z,6.80
2023-01-09T12:55:24.352Z,6.90
2023-01-09T12:57:56.477Z,7.00
2023-01-09T13:00:30.553Z,7.10
2023-01-09T13:03:24.318Z,6.90
2023-01-09T13:05:53.827Z,7.10
2023-01-09T13:08:41.838Z,7.30
2023-01-09T13:11:41.554Z,7.00
2023-01-09T13:14:22.890Z,7.20
2023-01-09T13:16:54.039Z,7.20
2023-01-09T13:19:28.239Z,7.30
2023-01-09T13:21:58.570Z,7.20
2023-01-09T13:25:08.640Z,7.00
2023-01-09T13:27:40.758Z,7.00
2023-01-09T13:30:11.372Z,7.10
2023-01-09T13:32:58.660Z,7.00
2023-01-09T13:35:26.395Z,7.00
2023-01-09T13:37:54.531Z,6.90
2023-01-09T13:40:22.199Z,7.10
2023-01-09T13:42:58.300Z,7.10
2023-01-09T13:45:29.735Z,6.90
2023-01-09T13:48:15.166Z,7.00
2023-01-09T13:50:44.515Z,6.90
2023-01-09T13:53:18.291Z,6.80
2023-01-09T13:55:58.978Z,6.80
2023-01-09T13:58:29.133Z,6.80
2023-01-09T14:01:00.237Z,6.80
2023-01-09T14:03:34.496Z,6.70
2023-01-09T14:06:20.329Z,6.60
2023-01-09T14:08:49.718Z,6.70
2023-01-09T14:11:23.283Z,6.70
2023-01-09T14:14:01.784Z,6.70
2023-01-09T14:16:31.411Z,6.70
2023-01-09T14:19:28.626Z,6.50
2023-01-09T14:21:58.163Z,6.60
2023-01-09T14:24:43.037Z,6.40
2023-01-09T14:27:48.582Z,6.30
2023-01-09T14:30:29.014Z,6.30
2023-01-09T14:33:03.319Z,6.30
2023-01-09T14:36:04.995Z,6.10
2023-01-09T14:38:38.810Z,6.10
2023-01-09T14:41:15.605Z,6.10
2023-01-09T14:44:04.644Z,5.90
2023-01-09T14:46:38.239Z,6.00
2023-01-09T14:49:24.833Z,6.00
2023-01-09T14:51:54.304Z,6.10
2023-01-09T14:54:34.220Z,6.00
2023-01-09T14:57:02.595Z,6.10
2023-01-09T14:59:30.396Z,6.10
2023-01-09T15:01:59.930Z,6.10
2023-01-09T15:04:32.080Z,6.10
2023-01-09T15:07:00.255Z,6.10
2023-01-09T15:09:27.894Z,6.20
2023-01-09T15:12:05.698Z,5.90
2023-01-09T15:14:40.933Z,6.00
2023-01-09T15:17:29.354Z,5.90
2023-01-09T15:20:00.186Z,5.80
2023-01-09T15:22:36.116Z,6.00
2023-01-09T15:25:27.480Z,6.00
2023-01-09T15:28:20.033Z,6.00
2023-01-09T15:30:58.600Z,6.00
2023-01-09T15:33:26.488Z,6.00
2023-01-09T15:36:00.671Z,6.00
2023-01-09T15:38:30.828Z,6.00
2023-01-09T15:41:08.930Z,5.80
2023-01-09T15:43:42.263Z,5.80
2023-01-09T15:46:12.212Z,5.70
2023-01-09T15:48:39.952Z,5.60
2023-01-09T15:51:20.270Z,5.70
2023-01-09T15:53:52.123Z,5.80
2023-01-09T15:56:25.568Z,5.80
2023-01-09T15:58:55.452Z,5.80
2023-01-09T16:01:34.252Z,5.90
2023-01-09T16:04:09.497Z,5.90
2023-01-09T16:06:49.529Z,5.70
2023-01-09T16:09:23.673Z,5.80
2023-01-09T16:11:54.257Z,5.70
2023-01-09T16:14:35.498Z,5.80
2023-01-09T16:17:07.950Z,5.80
2023-01-09T16:19:47.990Z,5.90
2023-01-09T16:22:29.971Z,5.90
2023-01-09T16:25:00.236Z,6.00
2023-01-09T16:27:35.827Z,5.90
2023-01-09T16:30:20.338Z,5.90
2023-01-09T16:32:51.805Z,5.90
2023-01-09T16:35:23.055Z,5.90
2023-01-09T16:37:51.823Z,5.80
2023-01-09T16:40:22.247Z,5.80
2023-01-09T16:43:07.960Z,5.90
2023-01-09T16:45:43.928Z,5.80
2023-01-09T16:48:17.904Z,5.50
2023-01-09T16:50:45.791Z,5.60
2023-01-09T16:53:19.925Z,5.70
2023-01-09T16:55:48.157Z,5.60
2023-01-09T16:58:19.844Z,5.70
2023-01-09T17:00:48.488Z,5.80
2023-01-09T17:03:17.313Z,5.80
2023-01-09T17:05:45.405Z,5.80
2023-01-09T17:08:24.705Z,5.80
2023-01-09T17:10:54.591Z,5.70
2023-01-09T17:13:23.460Z,5.80
2023-01-09T17:15:53.511Z,5.70
2023-01-09T17:18:24.603Z,5.80
2023-01-09T17:20:57.650Z,5.90
2023-01-09T17:23:26.584Z,5.80
2023-01-09T17:26:18.799Z,5.70
2023-01-09T17:28:51.449Z,5.80
2023-01-09T17:31:19.697Z,5.80
2023-01-09T17:33:47.951Z,5.90
2023-01-09T17:36:23.141Z,5.80
2023-01-09T17:38:55.434Z,5.80
2023-01-09T17:41:25.173Z,5.80
2023-01-09T17:43:53.468Z,5.80
2023-01-09T17:46:37.174Z,5.80
2023-01-09T17:49:07.508Z,5.80
2023-01-09T17:51:35.810Z,5.90
2023-01-09T17:54:04.401Z,5.80
2023-01-09T17:56:35.421Z,5.80
2023-01-09T17:59:05.317Z,5.70
2023-01-09T18:01:33.488Z,5.70
2023-01-09T18:04:01.248Z,5.70
2023-01-09T18:06:29.858Z,5.80
2023-01-09T18:08:58.538Z,5.80
2023-01-09T18:11:26.811Z,5.70
2023-01-09T18:13:57.715Z,5.70
2023-01-09T18:16:28.847Z,5.60
2023-01-09T18:18:59.768Z,5.60
2023-01-09T18:21:49.212Z,5.60
2023-01-09T18:24:17.370Z,5.60
2023-01-09T18:26:45.715Z,5.70
2023-01-09T18:29:14.990Z,5.70
2023-01-09T18:31:43.662Z,5.80
2023-01-09T18:34:12.619Z,5.80
2023-01-09T18:36:40.586Z,5.80
2023-01-09T18:39:09.703Z,5.80
2023-01-09T18:41:37.561Z,5.80
2023-01-09T18:44:05.952Z,5.80
2023-01-09T18:46:34.285Z,5.70
2023-01-09T18:49:04.170Z,5.70
2023-01-09T18:51:34.828Z,5.70
2023-01-09T18:54:05.455Z,5.80
2023-01-09T18:56:33.589Z,5.80
2023-01-09T18:59:04.158Z,5.80
2023-01-09T19:01:33.913Z,5.80
2023-01-09T19:04:02.283Z,5.80
2023-01-09T19:06:32.125Z,5.80
2023-01-09T19:09:00.667Z,5.80
2023-01-09T19:11:30.414Z,5.80
2023-01-09T19:13:58.637Z,5.70
2023-01-09T19:16:27.373Z,5.70
2023-01-09T19:18:55.958Z,5.70
2023-01-09T19:21:27.176Z,5.70
2023-01-09T19:23:56.311Z,5.70
2023-01-09T19:26:27.215Z,5.70
2023-01-09T19:28:58.762Z,5.70
2023-01-09T19:31:29.002Z,5.50
2023-01-09T19:34:00.661Z,5.50
2023-01-09T19:36:29.502Z,5.60
2023-01-09T19:39:03.000Z,5.60
2023-01-09T19:41:31.205Z,5.40
2023-01-09T19:44:03.158Z,5.50
2023-01-09T19:46:35.513Z,5.70
2023-01-09T19:49:09.215Z,5.70
2023-01-09T19:51:38.716Z,5.70
2023-01-09T19:56:44.185Z,5.40
2023-01-09T19:59:14.285Z,5.40
2023-01-09T20:01:42.821Z,5.20
2023-01-09T20:04:18.078Z,5.10
2023-01-09T20:06:48.347Z,5.10
2023-01-09T20:09:22.130Z,5.30
2023-01-09T20:11:51.494Z,5.50
2023-01-09T20:14:21.706Z,5.50
2023-01-09T20:16:50.378Z,5.50
2023-01-09T20:19:20.812Z,5.60
2023-01-09T20:21:50.639Z,5.60
2023-01-09T20:24:19.570Z,5.60
2023-01-09T20:26:48.085Z,5.50
2023-01-09T20:29:17.229Z,5.50
2023-01-09T20:31:45.712Z,5.50
2023-01-09T20:34:15.190Z,5.30
2023-01-09T20:36:43.839Z,5.30
2023-01-09T20:39:12.941Z,5.40
2023-01-09T20:41:41.297Z,5.50
2023-01-09T20:44:13.060Z,5.50
2023-01-09T20:46:43.536Z,5.40
2023-01-09T20:49:12.993Z,5.50
2023-01-09T20:51:47.513Z,5.60
2023-01-09T20:54:17.268Z,5.60
2023-01-09T20:56:45.366Z,5.50
2023-01-09T20:59:17.509Z,5.50
2023-01-09T21:01:45.638Z,5.50
2023-01-09T21:04:14.606Z,5.30
2023-01-09T21:06:43.333Z,5.20
2023-01-09T21:09:11.383Z,5.30
2023-01-09T21:11:39.512Z,5.50
2023-01-09T21:14:07.772Z,5.50
2023-01-09T21:16:38.939Z,5.50
2023-01-09T21:19:06.926Z,5.50
2023-01-09T21:21:35.060Z,5.50
2023-01-09T21:24:05.016Z,5.60
2023-01-09T21:26:33.706Z,5.50
2023-01-09T21:29:02.612Z,5.40
2023-01-09T21:31:35.734Z,5.30
2023-01-09T21:34:06.395Z,5.40
2023-01-09T21:36:35.798Z,5.40
2023-01-09T21:39:07.684Z,5.40
2023-01-09T21:41:54.922Z,5.30
2023-01-09T21:44:41.828Z,5.20
2023-01-09T21:47:10.162Z,5.30
2023-01-09T21:49:42.049Z,5.30
2023-01-09T21:52:13.289Z,5.30
2023-01-09T21:54:42.077Z,5.30
2023-01-09T21:57:10.522Z,5.40
2023-01-09T21:59:38.209Z,5.40
2023-01-09T22:02:05.856Z,5.30
2023-01-09T22:04:33.958Z,5.30
2023-01-09T22:07:02.072Z,5.20
2023-01-09T22:09:29.850Z,5.10
2023-01-09T22:11:58.051Z,5.10
2023-01-09T22:14:25.757Z,5.20
2023-01-09T22:16:53.663Z,5.30
2023-01-09T22:19:21.938Z,5.20
2023-01-09T22:21:50.050Z,5.10
2023-01-09T22:24:19.075Z,5.00
2023-01-09T22:26:47.653Z,4.90
2023-01-09T22:29:16.347Z,4.90
2023-01-09T22:31:44.223Z,5.00
2023-01-09T22:34:17.548Z,4.90
2023-01-09T22:36:46.780Z,5.00
2023-01-09T22:39:17.543Z,4.90
2023-01-09T22:41:46.114Z,5.00
2023-01-09T22:44:13.810Z,4.90
2023-01-09T22:46:41.539Z,4.90
2023-01-09T22:49:12.361Z,5.00
2023-01-09T22:51:40.419Z,4.80
2023-01-09T22:54:08.265Z,4.80
2023-01-09T22:56:36.583Z,4.90
2023-01-09T22:59:04.226Z,4.80
2023-01-09T23:01:31.817Z,4.80
2023-01-09T23:03:59.655Z,4.80
2023-01-09T23:06:27.478Z,4.80
2023-01-09T23:08:55.684Z,4.80
2023-01-09T23:11:45.504Z,4.70
2023-01-09T23:14:14.092Z,4.70
2023-01-09T23:16:41.957Z,4.60
2023-01-09T23:19:12.995Z,4.70
2023-01-09T23:21:41.932Z,4.70
2023-01-09T23:24:09.887Z,4.60
2023-01-09T23:26:40.790Z,4.50
2023-01-09T23:29:08.832Z,4.60
2023-01-09T23:31:37.550Z,4.60
2023-01-09T23:34:08.433Z,4.60
2023-01-09T23:36:36.703Z,4.60
2023-01-09T23:39:09.178Z,4.50
2023-01-09T23:41:56.636Z,4.60
2023-01-09T23:44:24.508Z,4.60
2023-01-09T23:46:52.480Z,4.50
2023-01-09T23:49:20.114Z,4.50
2023-01-09T23:51:48.251Z,4.40
2023-01-09T23:54:17.184Z,4.50
2023-01-09T23:56:45.328Z,4.40
2023-01-09T23:59:14.949Z,4.40
